Time;durP1;ratioP1;P1;durP2;ratioP2;P2;SDS_P1;SDS_P2;PMS_P1;PMS_P2;Temp;Humidity;BMP_temperature;BMP_pressure;BME280_temperature;BME280_humidity;BME280_pressure;Samples;Min_cycle;Max_cycle;Signal;HPM_P1;HPM_P2
2023/12/07 00:01:28;;;;;;;21.05;8.02;;;;;;;;;;5094441;28;20058;-70
2023/12/07 00:03:54;;;;;;;24.13;8.00;;;;;;;;;;5093921;28;20044;-69
2023/12/07 00:06:20;;;;;;;26.27;8.45;;;;;;;;;;5094301;28;20051;-69
2023/12/07 00:08:46;;;;;;;22.52;7.60;;;;;;;;;;5094552;28;20044;-68
2023/12/07 00:11:13;;;;;;;22.30;7.90;;;;;;;;;;5092960;28;20052;-69
2023/12/07 00:13:39;;;;;;;20.75;7.90;;;;;;;;;;5126839;27;20379;-69
2023/12/07 00:16:05;;;;;;;20.55;8.50;;;;;;;;;;5092856;28;20134;-69
2023/12/07 00:18:31;;;;;;;21.95;8.52;;;;;;;;;;5094144;28;20044;-70
2023/12/07 00:20:57;;;;;;;28.35;8.30;;;;;;;;;;5093055;28;20067;-70
2023/12/07 00:23:23;;;;;;;22.35;7.93;;;;;;;;;;5093967;28;20081;-70
2023/12/07 00:25:50;;;;;;;23.08;8.18;;;;;;;;;;5076103;28;20052;-70
2023/12/07 00:28:16;;;;;;;21.27;7.90;;;;;;;;;;5092875;28;20048;-70
2023/12/07 00:30:42;;;;;;;20.83;7.53;;;;;;;;;;5093537;28;20507;-69
2023/12/07 00:33:09;;;;;;;25.42;8.43;;;;;;;;;;5092740;28;20059;-69
2023/12/07 00:35:35;;;;;;;22.63;8.25;;;;;;;;;;5092839;28;20052;-69
2023/12/07 00:38:02;;;;;;;21.10;8.00;;;;;;;;;;5092633;28;20483;-68
2023/12/07 00:40:28;;;;;;;29.83;8.82;;;;;;;;;;5093784;28;20040;-70
2023/12/07 00:42:54;;;;;;;25.85;8.30;;;;;;;;;;5092477;28;20044;-70
2023/12/07 00:45:20;;;;;;;21.67;8.18;;;;;;;;;;5093031;28;20414;-69
2023/12/07 00:47:46;;;;;;;23.70;8.25;;;;;;;;;;5093680;28;20079;-69
2023/12/07 00:50:14;;;;;;;23.05;8.27;;;;;;;;;;5092604;28;20471;-70
2023/12/07 00:52:41;;;;;;;25.27;8.88;;;;;;;;;;5092401;28;20060;-69
2023/12/07 00:55:07;;;;;;;24.47;9.20;;;;;;;;;;5093684;28;20048;-70
2023/12/07 00:57:33;;;;;;;24.33;9.68;;;;;;;;;;5093573;28;20290;-70
2023/12/07 00:59:59;;;;;;;28.75;10.20;;;;;;;;;;5093505;28;20047;-69
2023/12/07 01:02:25;;;;;;;23.75;9.23;;;;;;;;;;5093627;28;20399;-69
2023/12/07 01:04:51;;;;;;;28.02;9.18;;;;;;;;;;5092546;28;20434;-69
2023/12/07 01:07:17;;;;;;;28.05;9.63;;;;;;;;;;5093565;28;20055;-68
2023/12/07 01:09:43;;;;;;;30.38;10.20;;;;;;;;;;5126742;28;20052;-70
2023/12/07 01:12:09;;;;;;;33.78;10.82;;;;;;;;;;5093501;28;20400;-69
2023/12/07 01:14:35;;;;;;;28.38;10.52;;;;;;;;;;5093406;28;20047;-70
2023/12/07 01:17:02;;;;;;;28.50;10.23;;;;;;;;;;5093218;28;20055;-69
2023/12/07 01:19:28;;;;;;;28.58;10.43;;;;;;;;;;5093427;28;20059;-70
2023/12/07 01:21:54;;;;;;;29.58;11.10;;;;;;;;;;5093257;28;20131;-69
2023/12/07 01:24:20;;;;;;;30.42;10.63;;;;;;;;;;5093211;28;20181;-69
2023/12/07 01:26:46;;;;;;;27.70;9.90;;;;;;;;;;5095707;28;20044;-69
2023/12/07 01:29:13;;;;;;;29.65;9.90;;;;;;;;;;5080258;28;20054;-69
2023/12/07 01:31:40;;;;;;;29.80;10.65;;;;;;;;;;5096382;28;20052;-70
2023/12/07 01:34:06;;;;;;;31.60;10.93;;;;;;;;;;5096211;28;20051;-70
2023/12/07 01:36:32;;;;;;;28.42;11.00;;;;;;;;;;5097154;28;20048;-70
2023/12/07 01:38:59;;;;;;;33.05;10.77;;;;;;;;;;5097014;28;20463;-68
2023/12/07 01:41:26;;;;;;;36.22;11.18;;;;;;;;;;5095850;28;20590;-70
2023/12/07 01:43:52;;;;;;;36.85;11.68;;;;;;;;;;5096993;28;20531;-68
2023/12/07 01:46:18;;;;;;;31.40;10.82;;;;;;;;;;5095806;28;20040;-68
2023/12/07 01:48:48;;;;;;;31.50;11.52;;;;;;;;;;5096864;28;20081;-69
2023/12/07 01:51:14;;;;;;;31.33;10.40;;;;;;;;;;5095365;28;20526;-70
2023/12/07 01:53:41;;;;;;;37.47;11.63;;;;;;;;;;5097034;28;20059;-69
2023/12/07 01:56:08;;;;;;;32.20;10.88;;;;;;;;;;5096840;28;20066;-69
2023/12/07 01:58:34;;;;;;;32.15;11.05;;;;;;;;;;5096548;28;20040;-69
2023/12/07 02:01:01;;;;;;;35.47;11.53;;;;;;;;;;5096669;28;20051;-70
2023/12/07 02:03:29;;;;;;;36.50;11.63;;;;;;;;;;5096581;28;20311;-68
2023/12/07 02:05:56;;;;;;;37.10;12.40;;;;;;;;;;5095882;28;20122;-69
2023/12/07 02:08:22;;;;;;;36.15;12.13;;;;;;;;;;5096621;28;20043;-70
2023/12/07 02:10:48;;;;;;;31.05;10.82;;;;;;;;;;5096585;28;20047;-68
2023/12/07 02:13:14;;;;;;;32.28;10.75;;;;;;;;;;5096800;28;20044;-69
2023/12/07 02:15:40;;;;;;;30.10;10.73;;;;;;;;;;5096762;28;20445;-69
2023/12/07 02:18:12;;;;;;;32.33;10.65;;;;;;;;;;5096937;28;20392;-69
2023/12/07 02:20:54;;;;;;;32.53;10.55;;;;;;;;;;5096433;28;20109;-69
2023/12/07 02:23:20;;;;;;;38.00;11.05;;;;;;;;;;5096234;28;20403;-68
2023/12/07 02:25:52;;;;;;;32.85;11.00;;;;;;;;;;5096150;28;20046;-70
2023/12/07 02:28:18;;;;;;;30.45;9.88;;;;;;;;;;5095228;28;20040;-69
2023/12/07 02:30:44;;;;;;;31.42;10.27;;;;;;;;;;5096182;28;20101;-69
2023/12/07 02:33:11;;;;;;;29.92;10.23;;;;;;;;;;5096048;28;20073;-68
2023/12/07 02:35:37;;;;;;;28.87;10.37;;;;;;;;;;5095433;28;20047;-68
2023/12/07 02:38:04;;;;;;;31.35;11.25;;;;;;;;;;5093812;28;20513;-68
2023/12/07 02:40:30;;;;;;;36.20;11.53;;;;;;;;;;5096287;28;20048;-68
2023/12/07 02:42:57;;;;;;;33.03;10.85;;;;;;;;;;5096667;28;20047;-69
2023/12/07 02:45:23;;;;;;;38.45;11.70;;;;;;;;;;5095805;28;20078;-69
2023/12/07 02:47:49;;;;;;;33.67;11.02;;;;;;;;;;5096129;28;20050;-70
2023/12/07 02:50:17;;;;;;;37.17;12.02;;;;;;;;;;5094613;28;20113;-69
2023/12/07 02:52:43;;;;;;;39.80;11.88;;;;;;;;;;5095710;28;20131;-69
2023/12/07 02:55:09;;;;;;;34.45;11.82;;;;;;;;;;5094611;28;20408;-69
2023/12/07 02:57:35;;;;;;;35.35;12.48;;;;;;;;;;5094450;28;20044;-70
2023/12/07 03:00:06;;;;;;;34.72;11.73;;;;;;;;;;5095539;28;20050;-68
2023/12/07 03:02:33;;;;;;;35.17;10.95;;;;;;;;;;5078543;28;20052;-68
2023/12/07 03:04:59;;;;;;;38.83;11.25;;;;;;;;;;5095412;28;20036;-70
2023/12/07 03:07:25;;;;;;;37.13;11.30;;;;;;;;;;5094188;28;20044;-69
2023/12/07 03:09:51;;;;;;;37.40;11.55;;;;;;;;;;5077616;28;20044;-70
2023/12/07 03:12:17;;;;;;;37.22;12.27;;;;;;;;;;5095210;28;20043;-68
2023/12/07 03:14:43;;;;;;;34.30;12.02;;;;;;;;;;5094879;28;20499;-68
2023/12/07 03:17:09;;;;;;;36.00;11.27;;;;;;;;;;5093910;28;20048;-69
2023/12/07 03:19:39;;;;;;;33.53;11.40;;;;;;;;;;5093958;28;20040;-68
2023/12/07 03:22:08;;;;;;;36.92;12.02;;;;;;;;;;5095051;28;20141;-68
2023/12/07 03:24:38;;;;;;;36.22;11.93;;;;;;;;;;5095106;28;20044;-68
2023/12/07 03:27:05;;;;;;;37.47;12.38;;;;;;;;;;5094902;28;20044;-68
2023/12/07 03:29:31;;;;;;;37.60;12.25;;;;;;;;;;5095287;28;20050;-69
2023/12/07 03:31:57;;;;;;;36.53;12.73;;;;;;;;;;5095044;28;20054;-68
2023/12/07 03:34:23;;;;;;;41.22;12.57;;;;;;;;;;5094892;28;20048;-69
2023/12/07 03:36:50;;;;;;;35.22;12.38;;;;;;;;;;5095649;28;20044;-68
2023/12/07 03:39:18;;;;;;;41.83;13.18;;;;;;;;;;5094744;28;20048;-68
2023/12/07 03:41:44;;;;;;;37.85;13.38;;;;;;;;;;5094332;28;20048;-69
2023/12/07 03:44:10;;;;;;;35.40;13.68;;;;;;;;;;5094526;28;20043;-69
2023/12/07 03:46:37;;;;;;;34.22;12.32;;;;;;;;;;5094649;28;20127;-69
2023/12/07 03:49:06;;;;;;;36.13;12.80;;;;;;;;;;5094447;28;20059;-69
2023/12/07 03:51:32;;;;;;;38.15;13.20;;;;;;;;;;5094829;28;20132;-69
2023/12/07 03:53:58;;;;;;;36.92;12.30;;;;;;;;;;5093674;28;20048;-69
2023/12/07 03:56:29;;;;;;;38.08;13.18;;;;;;;;;;5094916;28;20100;-69
2023/12/07 03:58:55;;;;;;;40.17;13.63;;;;;;;;;;5094931;28;20048;-69
2023/12/07 04:01:25;;;;;;;42.67;14.10;;;;;;;;;;5094699;28;20051;-70
2023/12/07 04:03:55;;;;;;;40.42;14.13;;;;;;;;;;5094166;28;20380;-69
2023/12/07 04:06:22;;;;;;;45.78;14.68;;;;;;;;;;5094418;28;20059;-69
2023/12/07 04:08:48;;;;;;;45.58;14.48;;;;;;;;;;5094378;28;20434;-69
2023/12/07 04:11:15;;;;;;;39.35;13.55;;;;;;;;;;5094672;28;20040;-68
2023/12/07 04:13:42;;;;;;;41.53;14.48;;;;;;;;;;5093109;28;20040;-70
2023/12/07 04:16:09;;;;;;;45.70;14.82;;;;;;;;;;5093684;28;20044;-68
2023/12/07 04:18:35;;;;;;;41.58;13.98;;;;;;;;;;5076488;28;20078;-69
2023/12/07 04:21:01;;;;;;;45.45;15.18;;;;;;;;;;5094834;28;20063;-70
2023/12/07 04:23:27;;;;;;;47.25;15.00;;;;;;;;;;5094659;28;20097;-69
2023/12/07 04:25:53;;;;;;;46.30;14.30;;;;;;;;;;5092898;28;20077;-69
2023/12/07 04:28:19;;;;;;;41.38;14.77;;;;;;;;;;5093591;28;20433;-70
2023/12/07 04:30:45;;;;;;;48.17;16.35;;;;;;;;;;5094007;28;20045;-70
2023/12/07 04:33:12;;;;;;;43.83;15.10;;;;;;;;;;5076180;28;20137;-70
2023/12/07 04:35:38;;;;;;;47.08;15.82;;;;;;;;;;5093831;28;20544;-70
2023/12/07 04:38:04;;;;;;;45.50;15.05;;;;;;;;;;5093848;28;20132;-70
2023/12/07 04:40:30;;;;;;;51.45;15.95;;;;;;;;;;5094503;28;20048;-70
2023/12/07 04:42:56;;;;;;;47.35;14.65;;;;;;;;;;5094118;28;20052;-71
2023/12/07 04:45:22;;;;;;;50.22;15.80;;;;;;;;;;5093263;28;20066;-69
2023/12/07 04:47:48;;;;;;;42.47;14.68;;;;;;;;;;5093494;28;20079;-69
2023/12/07 04:50:15;;;;;;;49.70;14.88;;;;;;;;;;5093031;28;20500;-70
2023/12/07 04:52:41;;;;;;;46.47;14.65;;;;;;;;;;5093649;28;20052;-69
2023/12/07 04:55:08;;;;;;;54.50;15.63;;;;;;;;;;5093623;28;20089;-70
2023/12/07 04:57:34;;;;;;;43.70;15.32;;;;;;;;;;5092360;28;20062;-69
2023/12/07 05:00:00;;;;;;;44.08;15.65;;;;;;;;;;5092062;28;20567;-70
2023/12/07 05:02:27;;;;;;;43.30;15.00;;;;;;;;;;5092991;28;20345;-69
2023/12/07 05:04:53;;;;;;;44.08;14.30;;;;;;;;;;5092256;28;20047;-70
2023/12/07 05:07:20;;;;;;;45.38;14.95;;;;;;;;;;5092193;28;20134;-70
2023/12/07 05:09:46;;;;;;;44.55;15.75;;;;;;;;;;5093494;28;20079;-70
2023/12/07 05:12:12;;;;;;;52.13;15.45;;;;;;;;;;5075904;28;20417;-69
2023/12/07 05:14:39;;;;;;;49.97;16.27;;;;;;;;;;5093135;28;20044;-69
2023/12/07 05:17:05;;;;;;;48.42;15.85;;;;;;;;;;5092446;28;20079;-69
2023/12/07 05:19:31;;;;;;;49.75;16.75;;;;;;;;;;5092892;28;20048;-70
2023/12/07 05:21:57;;;;;;;50.38;15.57;;;;;;;;;;5093423;28;20177;-69
2023/12/07 05:24:23;;;;;;;45.17;14.90;;;;;;;;;;5093964;28;20066;-68
2023/12/07 05:26:49;;;;;;;50.38;15.65;;;;;;;;;;5092670;28;20066;-70
2023/12/07 05:29:15;;;;;;;46.00;14.77;;;;;;;;;;5076331;28;20101;-69
2023/12/07 05:31:42;;;;;;;44.70;15.07;;;;;;;;;;5093809;28;20062;-70
2023/12/07 05:34:08;;;;;;;44.40;15.15;;;;;;;;;;5092815;28;20127;-69
2023/12/07 05:36:34;;;;;;;44.97;14.60;;;;;;;;;;5093185;28;20044;-69
2023/12/07 05:39:00;;;;;;;46.55;14.40;;;;;;;;;;5092267;28;20064;-69
2023/12/07 05:41:26;;;;;;;43.65;15.30;;;;;;;;;;5093130;28;20044;-69
2023/12/07 05:43:53;;;;;;;46.00;15.75;;;;;;;;;;5075259;28;20040;-69
2023/12/07 05:46:19;;;;;;;46.30;15.88;;;;;;;;;;5092229;28;20070;-70
2023/12/07 05:48:45;;;;;;;53.20;16.83;;;;;;;;;;5092104;28;20052;-70
2023/12/07 05:51:16;;;;;;;45.10;15.27;;;;;;;;;;5093653;28;20048;-70
2023/12/07 05:53:42;;;;;;;42.20;14.27;;;;;;;;;;5093086;28;20051;-70
2023/12/07 05:56:09;;;;;;;48.10;15.98;;;;;;;;;;5092097;28;20040;-70
2023/12/07 05:58:35;;;;;;;53.47;16.67;;;;;;;;;;5093036;28;20396;-70
2023/12/07 06:01:02;;;;;;;40.38;14.68;;;;;;;;;;5093087;28;20335;-69
2023/12/07 06:03:29;;;;;;;52.38;15.35;;;;;;;;;;5092701;28;20056;-69
2023/12/07 06:05:55;;;;;;;45.75;15.00;;;;;;;;;;5093136;28;20040;-70
2023/12/07 06:08:21;;;;;;;44.40;15.63;;;;;;;;;;5092720;28;20048;-69
2023/12/07 06:10:48;;;;;;;46.83;15.63;;;;;;;;;;5074860;28;20484;-70
2023/12/07 06:13:14;;;;;;;58.35;15.85;;;;;;;;;;5095717;28;20043;-69
2023/12/07 06:15:41;;;;;;;48.40;15.80;;;;;;;;;;5095158;28;20052;-69
2023/12/07 06:18:07;;;;;;;51.13;15.90;;;;;;;;;;5096500;28;20047;-69
2023/12/07 06:20:34;;;;;;;48.25;16.08;;;;;;;;;;5095377;28;20769;-68
2023/12/07 06:23:02;;;;;;;42.33;15.48;;;;;;;;;;5096659;28;20054;-70
2023/12/07 06:25:28;;;;;;;55.70;17.15;;;;;;;;;;5096202;28;20059;-68
2023/12/07 06:27:56;;;;;;;44.47;15.55;;;;;;;;;;5130174;27;20044;-69
2023/12/07 06:30:22;;;;;;;49.50;15.93;;;;;;;;;;5096271;28;20048;-69
2023/12/07 06:32:48;;;;;;;51.92;16.88;;;;;;;;;;5096333;28;20052;-69
2023/12/07 06:35:15;;;;;;;52.63;16.50;;;;;;;;;;5096041;28;20051;-69
2023/12/07 06:37:41;;;;;;;50.88;16.83;;;;;;;;;;5129097;27;20101;-69
2023/12/07 06:40:09;;;;;;;44.05;15.55;;;;;;;;;;5094738;28;20101;-69
2023/12/07 06:42:39;;;;;;;44.85;15.45;;;;;;;;;;5077938;28;20052;-70
2023/12/07 06:45:10;;;;;;;49.30;15.77;;;;;;;;;;5095787;28;20069;-69
2023/12/07 06:47:36;;;;;;;52.42;16.38;;;;;;;;;;5095149;28;20090;-69
2023/12/07 06:50:02;;;;;;;42.85;15.10;;;;;;;;;;5095726;28;20117;-69
2023/12/07 06:52:28;;;;;;;51.10;15.55;;;;;;;;;;5094538;28;20094;-68
2023/12/07 06:54:55;;;;;;;45.45;15.18;;;;;;;;;;5128907;27;20055;-70
2023/12/07 06:57:21;;;;;;;47.92;15.45;;;;;;;;;;5095201;28;20089;-70
2023/12/07 06:59:48;;;;;;;45.92;16.08;;;;;;;;;;5093906;28;20511;-70
2023/12/07 07:02:14;;;;;;;50.50;17.65;;;;;;;;;;5095519;28;20048;-70
2023/12/07 07:04:40;;;;;;;49.22;16.38;;;;;;;;;;5095235;28;20181;-70
2023/12/07 07:07:06;;;;;;;52.22;17.33;;;;;;;;;;5095266;28;20054;-71
2023/12/07 07:09:32;;;;;;;46.10;16.80;;;;;;;;;;5095332;28;20050;-69
2023/12/07 07:11:58;;;;;;;54.90;18.42;;;;;;;;;;5095866;28;20288;-71
2023/12/07 07:14:25;;;;;;;51.25;17.38;;;;;;;;;;5095509;28;20372;-70
2023/12/07 07:16:52;;;;;;;53.38;17.67;;;;;;;;;;5094926;28;20059;-71
2023/12/07 07:19:18;;;;;;;49.58;18.27;;;;;;;;;;5095029;28;20119;-71
2023/12/07 07:21:44;;;;;;;50.35;17.00;;;;;;;;;;5093677;28;20051;-69
2023/12/07 07:24:10;;;;;;;49.75;17.88;;;;;;;;;;5093078;28;20044;-70
2023/12/07 07:26:36;;;;;;;45.33;17.67;;;;;;;;;;5095569;28;20085;-70
2023/12/07 07:29:03;;;;;;;45.35;16.77;;;;;;;;;;5094814;28;20047;-70
2023/12/07 07:31:30;;;;;;;51.95;17.88;;;;;;;;;;5094792;28;20044;-72
2023/12/07 07:33:56;;;;;;;48.33;18.17;;;;;;;;;;5095421;28;20051;-71
2023/12/07 07:36:22;;;;;;;61.97;19.98;;;;;;;;;;5093646;28;20282;-70
2023/12/07 07:38:48;;;;;;;50.03;18.45;;;;;;;;;;5094527;28;20193;-70
2023/12/07 07:41:14;;;;;;;49.78;17.05;;;;;;;;;;5095385;28;20044;-70
2023/12/07 07:43:40;;;;;;;59.40;20.10;;;;;;;;;;5094416;28;20044;-70
2023/12/07 07:46:08;;;;;;;57.13;19.23;;;;;;;;;;5094438;28;20039;-70
2023/12/07 07:48:34;;;;;;;59.97;20.30;;;;;;;;;;5094547;28;20059;-71
2023/12/07 07:51:00;;;;;;;49.28;17.52;;;;;;;;;;5095155;28;20105;-71
2023/12/07 07:53:26;;;;;;;54.33;17.98;;;;;;;;;;5094450;28;20403;-72
2023/12/07 07:55:52;;;;;;;51.65;18.45;;;;;;;;;;5094305;28;20050;-70
2023/12/07 07:58:19;;;;;;;64.95;19.85;;;;;;;;;;5093339;28;20135;-71
2023/12/07 08:00:46;;;;;;;57.55;19.77;;;;;;;;;;5092917;28;20048;-70
2023/12/07 08:03:12;;;;;;;;;;;;;;;;;;5094594;28;20127;-70
2023/12/07 08:05:38;;;;;;;47.70;16.57;;;;;;;;;;5094060;28;19931;-69
2023/12/07 08:08:04;;;;;;;48.05;16.67;;;;;;;;;;5094413;28;20083;-70
2023/12/07 08:10:30;;;;;;;54.92;18.08;;;;;;;;;;5094163;28;20154;-70
2023/12/07 08:12:56;;;;;;;59.08;18.90;;;;;;;;;;5093935;28;20040;-71
2023/12/07 08:15:22;;;;;;;59.95;20.95;;;;;;;;;;5093921;28;20051;-71
2023/12/07 08:17:48;;;;;;;52.17;19.55;;;;;;;;;;5093850;28;20131;-69
2023/12/07 08:20:15;;;;;;;59.38;19.77;;;;;;;;;;5093941;28;20051;-70
2023/12/07 08:22:41;;;;;;;62.45;20.38;;;;;;;;;;5092748;28;20391;-69
2023/12/07 08:25:07;;;;;;;58.95;20.40;;;;;;;;;;5094224;28;20036;-71
2023/12/07 08:27:34;;;;;;;80.80;19.88;;;;;;;;;;5094350;28;20052;-70
2023/12/07 08:30:00;;;;;;;131.80;23.63;;;;;;;;;;5094416;28;20051;-71
2023/12/07 08:32:26;;;;;;;195.03;27.90;;;;;;;;;;5093940;28;20101;-71
2023/12/07 08:34:53;;;;;;;168.85;26.85;;;;;;;;;;5092528;28;20051;-70
2023/12/07 08:37:19;;;;;;;441.92;44.00;;;;;;;;;;5093564;28;20048;-70
2023/12/07 08:39:45;;;;;;;157.88;26.45;;;;;;;;;;5093500;28;20054;-70
2023/12/07 08:42:12;;;;;;;235.88;31.17;;;;;;;;;;5093498;28;20462;-70
2023/12/07 08:44:38;;;;;;;253.33;32.20;;;;;;;;;;5093410;28;20419;-70
2023/12/07 08:47:05;;;;;;;216.35;28.33;;;;;;;;;;5093355;28;20151;-70
2023/12/07 08:49:31;;;;;;;248.93;29.35;;;;;;;;;;5093528;28;20531;-70
2023/12/07 08:51:57;;;;;;;339.48;31.95;;;;;;;;;;5093740;28;20052;-69
2023/12/07 08:54:24;;;;;;;288.75;32.08;;;;;;;;;;5093460;28;20545;-70
2023/12/07 08:56:50;;;;;;;224.75;25.65;;;;;;;;;;5093262;28;20044;-69
2023/12/07 08:59:16;;;;;;;150.23;24.27;;;;;;;;;;5093550;28;20486;-70
2023/12/07 09:01:42;;;;;;;141.77;22.15;;;;;;;;;;5092340;28;20044;-70
2023/12/07 09:04:08;;;;;;;178.45;22.25;;;;;;;;;;5093148;28;20089;-70
2023/12/07 09:06:35;;;;;;;149.40;23.95;;;;;;;;;;5093201;28;20403;-71
2023/12/07 09:09:01;;;;;;;109.57;22.45;;;;;;;;;;5093124;28;20051;-70
2023/12/07 09:11:28;;;;;;;165.40;24.90;;;;;;;;;;5093191;28;20123;-70
2023/12/07 09:13:54;;;;;;;118.45;22.63;;;;;;;;;;5093104;28;20140;-70
2023/12/07 09:16:21;;;;;;;170.98;25.98;;;;;;;;;;5093824;28;20051;-70
2023/12/07 09:18:47;;;;;;;218.63;32.15;;;;;;;;;;5075588;28;20380;-71
2023/12/07 09:21:13;;;;;;;98.22;20.65;;;;;;;;;;5093466;28;20055;-70
2023/12/07 09:23:39;;;;;;;263.15;31.55;;;;;;;;;;5092976;28;20105;-71
2023/12/07 09:26:06;;;;;;;96.03;21.13;;;;;;;;;;5092908;28;20112;-70
2023/12/07 09:28:33;;;;;;;240.75;32.78;;;;;;;;;;5092681;28;20059;-70
2023/12/07 09:30:59;;;;;;;95.75;20.17;;;;;;;;;;5092953;28;20075;-69
2023/12/07 09:33:25;;;;;;;153.60;23.75;;;;;;;;;;5093498;28;20094;-69
2023/12/07 09:35:51;;;;;;;145.50;23.95;;;;;;;;;;5092111;28;20047;-68
2023/12/07 09:38:17;;;;;;;226.05;22.75;;;;;;;;;;5126738;28;20048;-71
2023/12/07 09:40:43;;;;;;;169.18;26.77;;;;;;;;;;5093222;28;20044;-70
2023/12/07 09:43:10;;;;;;;159.15;26.10;;;;;;;;;;5092985;28;20055;-70
2023/12/07 09:45:36;;;;;;;124.43;23.63;;;;;;;;;;5093012;28;20048;-70
2023/12/07 09:48:02;;;;;;;194.45;22.20;;;;;;;;;;5096760;28;20073;-70
2023/12/07 09:50:28;;;;;;;166.02;28.38;;;;;;;;;;5096234;28;20143;-70
2023/12/07 09:52:56;;;;;;;139.93;26.73;;;;;;;;;;5096741;28;20097;-68
2023/12/07 09:55:23;;;;;;;114.88;20.13;;;;;;;;;;5096114;28;20058;-69
2023/12/07 09:57:50;;;;;;;108.57;20.55;;;;;;;;;;5096861;28;20444;-70
2023/12/07 10:00:17;;;;;;;140.35;22.67;;;;;;;;;;5096503;28;20048;-69
2023/12/07 10:02:45;;;;;;;96.78;20.52;;;;;;;;;;5078909;28;20059;-69
2023/12/07 10:05:19;;;;;;;129.75;21.83;;;;;;;;;;5096245;28;20093;-70
2023/12/07 10:07:48;;;;;;;148.10;23.85;;;;;;;;;;5096638;28;20054;-70
2023/12/07 10:10:15;;;;;;;183.23;26.63;;;;;;;;;;5096501;28;20124;-70
2023/12/07 10:12:55;;;;;;;137.38;22.38;;;;;;;;;;5096219;28;20430;-70
2023/12/07 10:15:22;;;;;;;124.13;18.25;;;;;;;;;;5096162;28;20095;-70
2023/12/07 10:17:52;;;;;;;136.05;21.52;;;;;;;;;;5095884;28;20503;-69
2023/12/07 10:20:19;;;;;;;135.35;26.52;;;;;;;;;;5095730;28;20503;-70
2023/12/07 10:22:48;;;;;;;152.57;24.63;;;;;;;;;;5095413;28;20055;-70
2023/12/07 10:25:14;;;;;;;194.50;30.90;;;;;;;;;;5095876;28;20084;-70
2023/12/07 10:27:43;;;;;;;154.13;24.83;;;;;;;;;;5095964;28;20426;-70
2023/12/07 10:30:11;;;;;;;312.35;40.08;;;;;;;;;;5095915;28;20496;-69
2023/12/07 10:32:38;;;;;;;128.98;23.38;;;;;;;;;;5094676;28;20410;-69
2023/12/07 10:35:05;;;;;;;;;;;;;;;;;;5095319;28;20040;-69
2023/12/07 10:37:31;;;;;;;169.15;32.63;;;;;;;;;;5096003;28;19920;-69
2023/12/07 10:39:57;;;;;;;149.95;26.77;;;;;;;;;;5096579;28;20341;-69
2023/12/07 10:42:25;;;;;;;162.40;26.77;;;;;;;;;;5095460;28;20105;-70
2023/12/07 10:44:54;;;;;;;292.42;37.58;;;;;;;;;;5095819;28;20044;-70
2023/12/07 10:47:22;;;;;;;143.68;24.65;;;;;;;;;;5096370;28;20140;-70
2023/12/07 10:49:48;;;;;;;;;;;;;;;;;;5095188;28;20062;-70
2023/12/07 10:52:16;;;;;;;159.75;25.40;;;;;;;;;;5095645;28;19971;-69
2023/12/07 10:54:56;;;;;;;154.70;23.30;;;;;;;;;;5095564;28;20097;-70
2023/12/07 10:57:22;;;;;;;152.50;29.88;;;;;;;;;;5095146;28;20180;-69
2023/12/07 10:59:50;;;;;;;157.20;23.10;;;;;;;;;;5095161;28;20048;-69
2023/12/07 11:02:16;;;;;;;159.63;24.63;;;;;;;;;;5094466;28;20097;-69
2023/12/07 11:04:42;;;;;;;138.75;21.80;;;;;;;;;;5095053;28;20086;-69
2023/12/07 11:07:11;;;;;;;174.38;24.20;;;;;;;;;;5095339;28;20087;-68
2023/12/07 11:09:42;;;;;;;123.82;24.40;;;;;;;;;;5095288;28;20051;-70
2023/12/07 11:12:13;;;;;;;207.55;27.35;;;;;;;;;;5095468;28;20048;-69
2023/12/07 11:14:39;;;;;;;146.32;28.35;;;;;;;;;;5095160;28;20040;-69
2023/12/07 11:17:06;;;;;;;116.72;22.88;;;;;;;;;;5095075;28;20043;-68
2023/12/07 11:19:32;;;;;;;110.30;22.33;;;;;;;;;;5095201;28;20054;-69
2023/12/07 11:22:08;;;;;;;135.95;27.95;;;;;;;;;;5095097;28;20048;-70
2023/12/07 11:24:35;;;;;;;143.95;25.60;;;;;;;;;;5095662;28;20051;-69
2023/12/07 11:27:02;;;;;;;97.03;22.33;;;;;;;;;;5095440;28;20426;-70
2023/12/07 11:29:31;;;;;;;85.50;22.90;;;;;;;;;;5094813;28;20123;-69
2023/12/07 11:32:01;;;;;;;110.30;23.05;;;;;;;;;;5094871;28;20052;-69
2023/12/07 11:34:37;;;;;;;132.25;24.80;;;;;;;;;;5094715;28;20039;-69
2023/12/07 11:37:04;;;;;;;122.27;22.47;;;;;;;;;;5094810;28;20101;-70
2023/12/07 11:39:30;;;;;;;87.25;21.90;;;;;;;;;;5093785;28;20298;-70
2023/12/07 11:41:56;;;;;;;89.72;19.52;;;;;;;;;;5093594;28;20127;-70
2023/12/07 11:44:34;;;;;;;147.95;28.73;;;;;;;;;;5095084;28;20097;-70
2023/12/07 11:47:00;;;;;;;94.13;20.83;;;;;;;;;;5095026;28;20055;-70
2023/12/07 11:49:26;;;;;;;84.07;21.80;;;;;;;;;;5094135;28;20071;-72
2023/12/07 11:51:53;;;;;;;131.93;21.67;;;;;;;;;;5094891;28;20442;-70
2023/12/07 11:54:19;;;;;;;131.40;27.25;;;;;;;;;;5094168;28;20059;-69
2023/12/07 11:56:45;;;;;;;103.57;23.83;;;;;;;;;;5094300;28;20044;-70
2023/12/07 11:59:11;;;;;;;128.40;22.48;;;;;;;;;;5094261;28;20051;-68
2023/12/07 12:01:37;;;;;;;90.97;20.98;;;;;;;;;;5094401;28;20055;-70
2023/12/07 12:04:04;;;;;;;112.88;25.23;;;;;;;;;;5094756;28;20380;-71
2023/12/07 12:06:30;;;;;;;104.40;22.77;;;;;;;;;;5094423;28;20051;-69
2023/12/07 12:08:56;;;;;;;124.93;21.38;;;;;;;;;;5094107;28;20055;-72
2023/12/07 12:11:22;;;;;;;99.95;21.63;;;;;;;;;;5093781;28;20563;-69
2023/12/07 12:13:49;;;;;;;88.15;19.45;;;;;;;;;;5093153;28;20396;-69
2023/12/07 12:16:16;;;;;;;81.30;21.13;;;;;;;;;;5094061;28;20047;-69
2023/12/07 12:18:42;;;;;;;95.40;20.52;;;;;;;;;;5093787;28;20484;-70
2023/12/07 12:21:11;;;;;;;78.97;20.90;;;;;;;;;;5092801;28;20113;-69
2023/12/07 12:23:39;;;;;;;99.55;21.48;;;;;;;;;;5094063;28;20472;-71
2023/12/07 12:26:06;;;;;;;102.53;22.20;;;;;;;;;;5093996;28;20048;-70
2023/12/07 12:28:32;;;;;;;60.33;19.60;;;;;;;;;;5093872;28;20088;-70
2023/12/07 12:30:58;;;;;;;62.97;20.02;;;;;;;;;;5093841;28;20048;-71
2023/12/07 12:33:25;;;;;;;85.32;22.00;;;;;;;;;;5076012;28;20048;-68
2023/12/07 12:36:02;;;;;;;73.70;19.75;;;;;;;;;;5092637;28;20388;-70
2023/12/07 12:38:28;;;;;;;;;;;;;;;;;;5094122;28;20096;-68
2023/12/07 12:40:55;;;;;;;66.38;19.30;;;;;;;;;;5093333;28;20399;-69
2023/12/07 12:43:21;;;;;;;63.97;18.98;;;;;;;;;;5093618;28;20040;-69
2023/12/07 12:45:48;;;;;;;60.72;19.15;;;;;;;;;;5094360;28;20048;-69
2023/12/07 12:48:14;;;;;;;73.47;19.77;;;;;;;;;;5093841;28;20051;-69
2023/12/07 12:50:40;;;;;;;113.30;24.20;;;;;;;;;;5094397;28;20052;-70
2023/12/07 12:53:08;;;;;;;79.80;20.83;;;;;;;;;;5094118;28;20051;-69
2023/12/07 12:55:36;;;;;;;60.58;19.27;;;;;;;;;;5093575;28;20052;-69
2023/12/07 12:58:04;;;;;;;71.85;20.73;;;;;;;;;;5093497;28;20472;-70
2023/12/07 13:00:31;;;;;;;71.03;19.95;;;;;;;;;;5092225;28;20043;-69
2023/12/07 13:02:57;;;;;;;68.78;19.70;;;;;;;;;;5092462;28;20048;-69
2023/12/07 13:05:23;;;;;;;74.88;22.00;;;;;;;;;;5093351;28;20051;-68
2023/12/07 13:07:49;;;;;;;86.32;22.90;;;;;;;;;;5075504;28;20051;-70
2023/12/07 13:10:16;;;;;;;76.93;21.75;;;;;;;;;;5093878;28;20044;-68
2023/12/07 13:12:42;;;;;;;76.75;21.50;;;;;;;;;;5093756;28;20126;-69
2023/12/07 13:15:09;;;;;;;75.75;20.48;;;;;;;;;;5092089;28;20063;-71
2023/12/07 13:17:35;;;;;;;72.10;20.98;;;;;;;;;;5093171;28;20048;-71
2023/12/07 13:20:01;;;;;;;78.70;19.95;;;;;;;;;;5093174;28;20044;-69
2023/12/07 13:22:27;;;;;;;59.70;17.42;;;;;;;;;;5096408;28;20468;-70
2023/12/07 13:24:53;;;;;;;73.07;18.83;;;;;;;;;;5097998;28;20388;-68
2023/12/07 13:27:19;;;;;;;65.97;19.02;;;;;;;;;;5096008;28;20048;-69
2023/12/07 13:29:45;;;;;;;68.82;18.98;;;;;;;;;;5097121;28;20079;-69
2023/12/07 13:32:11;;;;;;;68.90;19.27;;;;;;;;;;5096424;28;20134;-69
2023/12/07 13:34:38;;;;;;;76.40;19.23;;;;;;;;;;5097136;28;20044;-69
2023/12/07 13:37:04;;;;;;;77.80;21.40;;;;;;;;;;5095778;28;20047;-69
2023/12/07 13:39:31;;;;;;;71.65;18.05;;;;;;;;;;5097056;28;20173;-69
2023/12/07 13:41:57;;;;;;;66.70;17.45;;;;;;;;;;5095759;28;20052;-68
2023/12/07 13:44:24;;;;;;;58.28;15.32;;;;;;;;;;5097396;28;20040;-69
2023/12/07 13:46:50;;;;;;;78.13;19.55;;;;;;;;;;5095586;28;20089;-68
2023/12/07 13:49:16;;;;;;;79.40;19.48;;;;;;;;;;5096809;28;20052;-68
2023/12/07 13:51:42;;;;;;;87.43;21.55;;;;;;;;;;5096699;28;20052;-69
2023/12/07 13:54:09;;;;;;;85.17;22.30;;;;;;;;;;5097261;28;20107;-70
2023/12/07 13:56:35;;;;;;;86.72;20.67;;;;;;;;;;5096626;28;20289;-70
2023/12/07 13:59:02;;;;;;;90.32;21.33;;;;;;;;;;5096682;28;20123;-69
2023/12/07 14:01:28;;;;;;;89.93;22.05;;;;;;;;;;5096681;28;20047;-69
2023/12/07 14:03:55;;;;;;;99.47;23.45;;;;;;;;;;5129874;27;20044;-69
2023/12/07 14:06:24;;;;;;;95.13;22.85;;;;;;;;;;5096572;28;20051;-69
2023/12/07 14:08:51;;;;;;;108.38;24.52;;;;;;;;;;5079284;28;20060;-69
2023/12/07 14:11:20;;;;;;;106.85;24.15;;;;;;;;;;5096494;28;20056;-68
2023/12/07 14:13:46;;;;;;;96.55;23.73;;;;;;;;;;5096577;28;20044;-69